createdAt,value
2023-03-01T00:01:52.134Z,1.63
2023-03-01T00:04:20.655Z,1.64
2023-03-01T00:06:49.429Z,1.53
2023-03-01T00:09:18.529Z,1.53
2023-03-01T00:11:47.643Z,1.54
2023-03-01T00:14:18.676Z,1.56
2023-03-01T00:16:47.658Z,1.53
2023-03-01T00:19:20.894Z,1.45
2023-03-01T00:21:49.760Z,1.34
2023-03-01T00:24:18.211Z,1.27
2023-03-01T00:26:47.767Z,1.25
2023-03-01T00:29:16.404Z,1.28
2023-03-01T00:31:44.886Z,1.23
2023-03-01T00:34:13.577Z,1.27
2023-03-01T00:36:42.253Z,1.33
2023-03-01T00:39:16.461Z,1.34
2023-03-01T00:41:45.773Z,1.33
2023-03-01T00:44:14.455Z,1.28
2023-03-01T00:46:42.915Z,1.26
2023-03-01T00:49:11.959Z,1.16
2023-03-01T00:51:42.643Z,1.05
2023-03-01T00:54:11.359Z,1.17
2023-03-01T00:56:39.972Z,1.19
2023-03-01T00:59:08.723Z,1.21
2023-03-01T01:01:37.619Z,1.26
2023-03-01T01:04:11.010Z,1.29
2023-03-01T01:06:46.410Z,1.31
2023-03-01T01:09:18.872Z,1.27
2023-03-01T01:11:52.359Z,1.12
2023-03-01T01:14:21.743Z,1.13
2023-03-01T01:16:50.918Z,1.11
2023-03-01T01:19:19.713Z,1.08
2023-03-01T01:21:49.778Z,1.02
2023-03-01T01:24:19.437Z,1.00
2023-03-01T01:26:48.249Z,0.99
2023-03-01T01:29:17.247Z,0.98
2023-03-01T01:31:45.810Z,1.00
2023-03-01T01:34:20.897Z,1.01
2023-03-01T01:36:57.327Z,1.03
2023-03-01T01:39:26.028Z,1.02
2023-03-01T01:41:54.905Z,0.91
2023-03-01T01:44:28.105Z,0.85
2023-03-01T01:47:21.714Z,0.83
2023-03-01T01:49:57.803Z,0.82
2023-03-01T01:52:35.268Z,0.80
2023-03-01T01:55:10.456Z,0.78
2023-03-01T01:57:44.446Z,0.80
2023-03-01T02:00:27.023Z,0.79
2023-03-01T02:03:09.389Z,0.79
2023-03-01T02:05:44.564Z,0.79
2023-03-01T02:08:16.010Z,0.80
2023-03-01T02:10:46.501Z,0.68
2023-03-01T02:13:15.663Z,0.67
2023-03-01T02:15:47.262Z,0.61
2023-03-01T02:18:20.124Z,0.59
2023-03-01T02:21:27.422Z,0.57
2023-03-01T02:23:57.215Z,0.58
2023-03-01T02:26:36.240Z,0.59
2023-03-01T02:29:06.861Z,0.55
2023-03-01T02:31:44.573Z,0.49
2023-03-01T02:34:22.126Z,0.44
2023-03-01T02:37:00.985Z,0.39
2023-03-01T02:39:38.298Z,0.31
2023-03-01T02:42:07.571Z,0.29
2023-03-01T02:44:36.156Z,0.31
2023-03-01T02:47:05.752Z,0.31
2023-03-01T02:49:37.621Z,0.30
2023-03-01T02:52:49.008Z,0.27
2023-03-01T02:55:19.357Z,0.27
2023-03-01T02:57:52.559Z,0.21
2023-03-01T03:00:27.662Z,0.13
2023-03-01T03:02:58.355Z,0.10
2023-03-01T03:05:32.812Z,0.07
2023-03-01T03:08:04.399Z,0.08
2023-03-01T03:10:40.855Z,0.13
2023-03-01T03:13:14.087Z,0.21
2023-03-01T03:15:44.484Z,0.24
2023-03-01T03:18:17.432Z,0.22
2023-03-01T03:20:46.973Z,0.18
2023-03-01T03:23:15.673Z,0.23
2023-03-01T03:25:44.321Z,0.22
2023-03-01T03:28:12.887Z,0.22
2023-03-01T03:30:43.104Z,0.23
2023-03-01T03:33:13.940Z,0.22
2023-03-01T03:35:48.861Z,0.17
2023-03-01T03:38:23.193Z,0.12
2023-03-01T03:41:06.633Z,0.07
2023-03-01T03:43:39.550Z,0.07
2023-03-01T03:46:08.811Z,0.06
2023-03-01T03:48:43.754Z,0.10
2023-03-01T03:51:18.219Z,0.12
2023-03-01T03:53:47.237Z,0.13
2023-03-01T03:56:16.053Z,0.08
2023-03-01T03:58:44.673Z,0.08
2023-03-01T04:01:13.157Z,0.05
2023-03-01T04:03:42.926Z,0.04
2023-03-01T04:06:11.466Z,0.00
2023-03-01T04:08:40.633Z,-0.04
2023-03-01T04:11:27.936Z,-0.09
2023-03-01T04:14:00.292Z,-0.10
2023-03-01T04:16:29.314Z,-0.11
2023-03-01T04:19:01.007Z,-0.11
2023-03-01T04:21:29.734Z,-0.09
2023-03-01T04:23:58.316Z,-0.08
2023-03-01T04:26:28.313Z,-0.07
2023-03-01T04:28:56.813Z,-0.11
2023-03-01T04:31:25.518Z,-0.36
2023-03-01T04:33:58.041Z,-0.54
2023-03-01T04:36:31.146Z,-0.69
2023-03-01T04:39:00.163Z,-0.87
2023-03-01T04:41:28.860Z,-0.97
2023-03-01T04:43:57.218Z,-1.06
2023-03-01T04:46:26.802Z,-1.12
2023-03-01T04:48:55.413Z,-1.16
2023-03-01T04:51:24.008Z,-1.22
2023-03-01T04:53:52.712Z,-1.27
2023-03-01T04:56:21.366Z,-1.41
2023-03-01T04:58:50.502Z,-1.43
2023-03-01T05:01:21.450Z,-1.46
2023-03-01T05:03:53.085Z,-1.44
2023-03-01T05:06:22.528Z,-1.45
2023-03-01T05:08:51.013Z,-1.36
2023-03-01T05:11:19.643Z,-1.30
2023-03-01T05:13:48.255Z,-1.32
2023-03-01T05:16:51.214Z,-1.27
2023-03-01T05:19:24.007Z,-1.12
2023-03-01T05:22:07.697Z,-1.02
2023-03-01T05:24:36.858Z,-1.09
2023-03-01T05:27:06.184Z,-1.10
2023-03-01T05:29:36.125Z,-1.10
2023-03-01T05:32:05.086Z,-1.05
2023-03-01T05:34:37.249Z,-0.99
2023-03-01T05:37:06.436Z,-0.91
2023-03-01T05:39:35.151Z,-0.92
2023-03-01T05:42:03.701Z,-0.86
2023-03-01T05:44:32.702Z,-0.75
2023-03-01T05:47:01.593Z,-0.68
2023-03-01T05:49:30.022Z,-0.61
2023-03-01T05:51:58.478Z,-0.54
2023-03-01T05:54:26.976Z,-0.47
2023-03-01T05:56:55.454Z,-0.44
2023-03-01T05:59:27.083Z,-0.44
2023-03-01T06:01:55.609Z,-0.32
2023-03-01T06:04:24.117Z,-0.28
2023-03-01T06:06:55.483Z,-0.20
2023-03-01T06:09:24.398Z,-0.19
2023-03-01T06:11:53.024Z,-0.17
2023-03-01T06:14:22.860Z,-0.24
2023-03-01T06:16:51.739Z,-0.27
2023-03-01T06:19:20.338Z,-0.23
2023-03-01T06:21:55.072Z,-0.15
2023-03-01T06:24:24.528Z,-0.05
2023-03-01T06:26:54.432Z,0.05
2023-03-01T06:29:24.213Z,0.21
2023-03-01T06:31:52.738Z,0.23
2023-03-01T06:34:22.912Z,0.24
2023-03-01T06:36:51.863Z,0.21
2023-03-01T06:39:20.455Z,0.17
2023-03-01T06:41:49.646Z,0.11
2023-03-01T06:44:20.858Z,-0.01
2023-03-01T06:46:49.501Z,0.11
2023-03-01T06:49:19.036Z,0.22
2023-03-01T06:51:48.061Z,0.24
2023-03-01T06:54:16.998Z,0.20
2023-03-01T06:56:48.544Z,0.34
2023-03-01T06:59:18.900Z,0.39
2023-03-01T07:01:47.538Z,0.52
2023-03-01T07:04:16.080Z,0.50
2023-03-01T07:06:44.765Z,0.43
2023-03-01T07:09:13.376Z,0.51
2023-03-01T07:11:42.526Z,0.65
2023-03-01T07:14:11.100Z,0.68
2023-03-01T07:16:39.630Z,0.65
2023-03-01T07:19:08.624Z,0.66
2023-03-01T07:21:40.094Z,0.71
2023-03-01T07:24:09.558Z,0.84
2023-03-01T07:26:44.260Z,0.95
2023-03-01T07:29:13.544Z,1.00
2023-03-01T07:31:43.514Z,1.04
2023-03-01T07:34:12.121Z,1.08
2023-03-01T07:36:44.242Z,1.10
2023-03-01T07:39:13.184Z,1.15
2023-03-01T07:41:42.099Z,1.19
2023-03-01T07:44:11.145Z,1.27
2023-03-01T07:46:39.734Z,1.29
2023-03-01T07:49:11.226Z,1.29
2023-03-01T07:51:39.794Z,1.29
2023-03-01T07:54:08.947Z,1.34
2023-03-01T07:56:38.042Z,1.38
2023-03-01T07:59:06.766Z,1.39
2023-03-01T08:01:36.852Z,1.40
2023-03-01T08:04:09.297Z,1.45
2023-03-01T08:06:38.457Z,1.48
2023-03-01T08:09:07.913Z,1.45
2023-03-01T08:11:36.591Z,1.49
2023-03-01T08:14:05.141Z,1.45
2023-03-01T08:16:36.611Z,1.47
2023-03-01T08:19:16.537Z,1.44
2023-03-01T08:21:45.520Z,1.52
2023-03-01T08:24:14.179Z,1.59
2023-03-01T08:26:45.647Z,1.64
2023-03-01T08:29:15.344Z,1.63
2023-03-01T08:31:44.234Z,1.59
2023-03-01T08:34:17.056Z,1.62
2023-03-01T08:36:48.702Z,1.73
2023-03-01T08:39:20.467Z,1.78
2023-03-01T08:41:49.549Z,1.84
2023-03-01T08:44:18.236Z,2.03
2023-03-01T08:46:47.275Z,2.13
2023-03-01T08:49:20.016Z,2.28
2023-03-01T08:51:49.800Z,2.41
2023-03-01T08:54:21.207Z,2.50
2023-03-01T08:56:51.241Z,2.45
2023-03-01T08:59:20.784Z,2.44
2023-03-01T09:01:49.605Z,2.58
2023-03-01T09:04:18.259Z,2.69
2023-03-01T09:06:47.197Z,2.79
2023-03-01T09:09:18.642Z,2.77
2023-03-01T09:11:48.585Z,2.76
2023-03-01T09:14:17.408Z,2.72
2023-03-01T09:16:46.474Z,2.83
2023-03-01T09:19:15.792Z,2.93
2023-03-01T09:21:53.612Z,3.04
2023-03-01T09:24:24.840Z,3.19
2023-03-01T09:26:57.766Z,3.24
2023-03-01T09:29:27.594Z,3.27
2023-03-01T09:31:56.624Z,3.26
2023-03-01T09:34:25.635Z,3.27
2023-03-01T09:36:54.484Z,3.27
2023-03-01T09:39:23.094Z,3.29
2023-03-01T09:42:06.499Z,3.37
2023-03-01T09:45:13.294Z,3.33
2023-03-01T09:47:45.674Z,3.42
2023-03-01T09:50:18.237Z,3.44
2023-03-01T09:53:12.794Z,3.35
2023-03-01T09:56:20.528Z,3.49
2023-03-01T09:59:12.073Z,3.75
2023-03-01T10:02:16.228Z,3.86
2023-03-01T10:04:55.497Z,3.94
2023-03-01T10:07:29.354Z,3.99
2023-03-01T10:09:58.858Z,3.97
2023-03-01T10:12:44.197Z,3.94
2023-03-01T10:15:31.671Z,3.78
2023-03-01T10:18:18.621Z,3.84
2023-03-01T10:21:07.268Z,3.85
2023-03-01T10:23:37.719Z,3.91
2023-03-01T10:26:40.941Z,3.85
2023-03-01T10:29:17.050Z,3.73
2023-03-01T10:31:52.173Z,3.76
2023-03-01T10:34:35.927Z,3.74
2023-03-01T10:37:22.859Z,3.68
2023-03-01T10:40:02.060Z,3.55
2023-03-01T10:42:35.570Z,3.52
2023-03-01T10:45:34.179Z,3.45
2023-03-01T10:48:25.783Z,3.40
2023-03-01T10:51:00.132Z,3.42
2023-03-01T10:53:42.958Z,3.47
2023-03-01T10:56:16.056Z,3.52
2023-03-01T10:59:07.374Z,3.50
2023-03-01T11:01:37.363Z,3.52
2023-03-01T11:04:10.233Z,3.50
2023-03-01T11:06:42.270Z,3.62
2023-03-01T11:09:24.440Z,3.63
2023-03-01T11:11:55.331Z,3.70
2023-03-01T11:14:37.883Z,3.74
2023-03-01T11:17:27.163Z,3.77
2023-03-01T11:20:36.150Z,3.81
2023-03-01T11:23:12.262Z,3.74
2023-03-01T11:25:47.383Z,3.65
2023-03-01T11:28:19.770Z,3.64
2023-03-01T11:31:08.281Z,3.56
2023-03-01T11:33:46.607Z,3.55
2023-03-01T11:36:39.521Z,3.55
2023-03-01T11:39:48.628Z,3.57
2023-03-01T11:42:26.733Z,3.52
2023-03-01T11:45:01.323Z,3.55
2023-03-01T11:47:39.001Z,3.57
2023-03-01T11:51:09.901Z,3.54
2023-03-01T11:53:54.510Z,3.43
2023-03-01T11:57:01.841Z,3.37
2023-03-01T12:00:02.023Z,3.37
2023-03-01T12:02:38.749Z,3.36
2023-03-01T12:05:27.614Z,3.34
2023-03-01T12:08:25.567Z,3.34
2023-03-01T12:11:22.552Z,3.36
2023-03-01T12:14:08.170Z,3.35
2023-03-01T12:16:58.520Z,3.42
2023-03-01T12:19:45.440Z,3.42
2023-03-01T12:22:30.516Z,3.55
2023-03-01T12:25:23.427Z,3.72
2023-03-01T12:28:16.330Z,3.83
2023-03-01T12:31:16.351Z,3.95
2023-03-01T12:34:23.556Z,3.92
2023-03-01T12:37:18.486Z,3.96
2023-03-01T12:40:15.417Z,3.97
2023-03-01T12:43:37.454Z,3.98
2023-03-01T12:46:26.869Z,4.03
2023-03-01T12:49:14.370Z,4.11
2023-03-01T12:51:56.865Z,4.24
2023-03-01T12:54:36.809Z,4.14
2023-03-01T12:57:20.497Z,4.18
2023-03-01T13:00:19.106Z,4.22
2023-03-01T13:02:54.715Z,4.30
2023-03-01T13:05:41.425Z,4.39
2023-03-01T13:08:29.562Z,4.48
2023-03-01T13:11:05.219Z,4.48
2023-03-01T13:13:33.987Z,4.50
2023-03-01T13:16:46.628Z,4.58
2023-03-01T13:19:23.608Z,4.58
2023-03-01T13:21:55.886Z,4.55
2023-03-01T13:24:43.698Z,4.59
2023-03-01T13:27:26.430Z,4.59
2023-03-01T13:30:01.021Z,4.61
2023-03-01T13:33:04.509Z,4.35
2023-03-01T13:35:46.184Z,4.16
2023-03-01T13:38:43.757Z,4.25
2023-03-01T13:41:37.985Z,4.29
2023-03-01T13:44:33.627Z,4.32
2023-03-01T13:47:08.429Z,4.37
2023-03-01T13:50:04.124Z,4.34
2023-03-01T13:52:47.868Z,4.33
2023-03-01T13:55:17.953Z,4.39
2023-03-01T13:57:56.882Z,4.43
2023-03-01T14:00:38.322Z,4.34
2023-03-01T14:03:12.922Z,4.29
2023-03-01T14:06:11.167Z,4.33
2023-03-01T14:08:43.256Z,4.51
2023-03-01T14:11:27.908Z,4.69
2023-03-01T14:14:19.039Z,4.88
2023-03-01T14:17:23.533Z,5.00
2023-03-01T14:20:05.639Z,4.88
2023-03-01T14:22:36.856Z,4.93
2023-03-01T14:25:18.493Z,4.86
2023-03-01T14:28:02.929Z,4.77
2023-03-01T14:30:42.749Z,4.64
2023-03-01T14:33:34.660Z,4.49
2023-03-01T14:36:11.708Z,4.29
2023-03-01T14:38:48.065Z,4.21
2023-03-01T14:41:21.286Z,4.17
2023-03-01T14:43:54.646Z,4.12
2023-03-01T14:46:42.546Z,4.03
2023-03-01T14:49:22.048Z,3.99
2023-03-01T14:52:05.630Z,3.98
2023-03-01T14:54:48.742Z,3.92
2023-03-01T14:57:23.072Z,3.89
2023-03-01T14:59:55.742Z,3.89
2023-03-01T15:02:27.574Z,3.84
2023-03-01T15:04:59.420Z,3.82
2023-03-01T15:07:36.721Z,3.77
2023-03-01T15:10:08.112Z,3.70
2023-03-01T15:12:42.333Z,3.68
2023-03-01T15:15:34.662Z,3.63
2023-03-01T15:18:28.947Z,3.62
2023-03-01T15:21:07.794Z,3.58
2023-03-01T15:23:39.582Z,3.54
2023-03-01T15:26:24.113Z,3.52
2023-03-01T15:28:59.272Z,3.49
2023-03-01T15:31:39.742Z,3.44
2023-03-01T15:34:33.443Z,3.40
2023-03-01T15:37:06.749Z,3.34
2023-03-01T15:39:53.758Z,3.25
2023-03-01T15:42:28.463Z,3.25
2023-03-01T15:45:28.311Z,3.23
2023-03-01T15:48:02.973Z,3.18
2023-03-01T15:50:40.812Z,3.11
2023-03-01T15:53:15.630Z,3.04
2023-03-01T15:55:45.121Z,3.00
2023-03-01T15:58:22.399Z,2.97
2023-03-01T16:01:01.971Z,2.91
2023-03-01T16:03:30.999Z,2.95
2023-03-01T16:05:59.794Z,2.87
2023-03-01T16:08:28.498Z,2.84
2023-03-01T16:10:57.385Z,2.81
2023-03-01T16:13:28.335Z,2.78
2023-03-01T16:15:57.810Z,2.74
2023-03-01T16:18:26.553Z,2.70
2023-03-01T16:20:55.711Z,2.65
2023-03-01T16:23:26.169Z,2.60
2023-03-01T16:25:54.788Z,2.57
2023-03-01T16:28:23.444Z,2.52
2023-03-01T16:30:51.974Z,2.46
2023-03-01T16:33:28.292Z,2.32
2023-03-01T16:36:13.293Z,2.29
2023-03-01T16:38:41.835Z,2.26
2023-03-01T16:41:16.934Z,2.21
2023-03-01T16:43:47.973Z,2.14
2023-03-01T16:46:23.887Z,2.14
2023-03-01T16:48:53.173Z,2.10
2023-03-01T16:51:22.725Z,2.07
2023-03-01T16:53:52.430Z,2.07
2023-03-01T16:56:21.220Z,2.08
2023-03-01T16:58:49.844Z,2.03
2023-03-01T17:01:24.674Z,2.05
2023-03-01T17:03:53.854Z,2.06
2023-03-01T17:06:24.508Z,2.02
2023-03-01T17:08:53.562Z,1.96
2023-03-01T17:11:23.399Z,1.91
2023-03-01T17:13:53.066Z,1.90
2023-03-01T17:16:22.297Z,1.88
2023-03-01T17:18:50.949Z,1.88
2023-03-01T17:21:22.611Z,1.85
2023-03-01T17:23:56.835Z,1.78
2023-03-01T17:26:27.798Z,1.75
2023-03-01T17:28:59.410Z,1.69
2023-03-01T17:31:28.361Z,1.72
2023-03-01T17:33:59.818Z,1.70
2023-03-01T17:36:29.825Z,1.67
2023-03-01T17:38:58.412Z,1.66
2023-03-01T17:41:27.357Z,1.67
2023-03-01T17:43:55.839Z,1.64
2023-03-01T17:46:24.950Z,1.64
2023-03-01T17:48:57.030Z,1.57
2023-03-01T17:51:25.600Z,1.48
2023-03-01T17:53:54.475Z,1.48
2023-03-01T17:56:23.021Z,1.41
2023-03-01T17:58:52.032Z,1.44
2023-03-01T18:01:22.140Z,1.43
2023-03-01T18:03:53.383Z,1.41
2023-03-01T18:06:25.254Z,1.36
2023-03-01T18:08:55.430Z,1.24
2023-03-01T18:11:25.955Z,1.18
2023-03-01T18:13:55.842Z,1.17
2023-03-01T18:16:24.791Z,1.19
2023-03-01T18:18:57.881Z,1.18
2023-03-01T18:21:26.522Z,1.17
2023-03-01T18:23:55.328Z,1.13
2023-03-01T18:26:25.344Z,1.13
2023-03-01T18:28:54.551Z,1.10
2023-03-01T18:31:23.060Z,1.09
2023-03-01T18:33:57.595Z,1.06
2023-03-01T18:36:29.779Z,1.05
2023-03-01T18:38:59.083Z,1.04
2023-03-01T18:41:29.284Z,1.07
2023-03-01T18:43:58.741Z,1.10
2023-03-01T18:46:27.364Z,1.09
2023-03-01T18:48:56.144Z,1.12
2023-03-01T18:51:28.026Z,1.09
2023-03-01T18:54:01.368Z,1.12
2023-03-01T18:56:34.375Z,1.11
2023-03-01T18:59:04.350Z,1.10
2023-03-01T19:01:36.685Z,1.05
2023-03-01T19:04:06.033Z,1.02
2023-03-01T19:06:35.590Z,0.96
2023-03-01T19:09:05.195Z,0.88
2023-03-01T19:11:35.766Z,0.84
2023-03-01T19:14:05.133Z,0.81
2023-03-01T19:16:34.582Z,0.76
2023-03-01T19:19:05.492Z,0.69
2023-03-01T19:21:34.598Z,0.68
2023-03-01T19:24:03.362Z,0.65
2023-03-01T19:26:33.173Z,0.63
2023-03-01T19:29:03.764Z,0.66
2023-03-01T19:31:32.670Z,0.69
2023-03-01T19:34:11.853Z,0.74
2023-03-01T19:36:43.264Z,0.80
2023-03-01T19:39:14.041Z,0.82
2023-03-01T19:41:44.125Z,0.83
2023-03-01T19:44:13.377Z,0.83
2023-03-01T19:46:42.623Z,0.86
2023-03-01T19:49:11.162Z,0.85
2023-03-01T19:51:39.778Z,0.83
2023-03-01T19:54:10.044Z,0.83
2023-03-01T19:56:39.189Z,0.79
2023-03-01T19:59:07.907Z,0.71
2023-03-01T20:01:38.047Z,0.70
2023-03-01T20:04:06.957Z,0.68
2023-03-01T20:06:37.460Z,0.66
2023-03-01T20:09:20.442Z,0.65
2023-03-01T20:11:51.967Z,0.62
2023-03-01T20:14:23.533Z,0.61
2023-03-01T20:16:53.223Z,0.58
2023-03-01T20:19:22.116Z,0.57
2023-03-01T20:21:50.781Z,0.53
2023-03-01T20:24:19.409Z,0.51
2023-03-01T20:26:47.978Z,0.52
2023-03-01T20:29:16.564Z,0.57
2023-03-01T20:31:48.887Z,0.58
2023-03-01T20:34:25.593Z,0.49
2023-03-01T20:36:54.712Z,0.41
2023-03-01T20:39:23.269Z,0.42
2023-03-01T20:41:51.785Z,0.39
2023-03-01T20:44:20.339Z,0.41
2023-03-01T20:46:49.848Z,0.45
2023-03-01T20:49:18.342Z,0.40
2023-03-01T20:51:47.012Z,0.36
2023-03-01T20:54:15.773Z,0.27
2023-03-01T20:56:44.437Z,0.19
2023-03-01T20:59:13.225Z,0.12
2023-03-01T21:01:47.513Z,0.06
2023-03-01T21:04:18.166Z,0.09
2023-03-01T21:06:46.816Z,0.12
2023-03-01T21:09:15.315Z,0.12
2023-03-01T21:11:44.048Z,0.18
2023-03-01T21:14:12.826Z,0.22
2023-03-01T21:16:41.311Z,0.28
2023-03-01T21:19:09.936Z,0.30
2023-03-01T21:21:38.615Z,0.31
2023-03-01T21:24:10.634Z,0.31
2023-03-01T21:26:39.467Z,0.30
2023-03-01T21:29:07.982Z,0.31
2023-03-01T21:31:36.589Z,0.31
2023-03-01T21:34:06.688Z,0.32
2023-03-01T21:36:36.382Z,0.34
2023-03-01T21:39:06.840Z,0.33
2023-03-01T21:41:37.913Z,0.31
2023-03-01T21:44:07.730Z,0.30
2023-03-01T21:46:39.859Z,0.25
2023-03-01T21:49:11.007Z,0.26
2023-03-01T21:51:39.665Z,0.23
2023-03-01T21:54:08.393Z,0.25
2023-03-01T21:56:39.383Z,0.27
2023-03-01T21:59:15.464Z,0.31
2023-03-01T22:01:44.814Z,0.24
2023-03-01T22:04:14.445Z,0.24
2023-03-01T22:06:44.888Z,0.20
2023-03-01T22:09:20.582Z,0.07
2023-03-01T22:11:54.160Z,-0.05
2023-03-01T22:14:22.713Z,-0.19
2023-03-01T22:16:51.879Z,-0.25
2023-03-01T22:19:21.169Z,-0.37
2023-03-01T22:21:52.776Z,-0.32
2023-03-01T22:24:25.562Z,-0.32
2023-03-01T22:26:54.882Z,-0.27
2023-03-01T22:29:29.144Z,-0.22
2023-03-01T22:31:58.943Z,-0.17
2023-03-01T22:34:28.173Z,-0.13
2023-03-01T22:36:56.985Z,-0.08
2023-03-01T22:39:25.471Z,-0.05
2023-03-01T22:41:55.074Z,-0.03
2023-03-01T22:44:24.679Z,-0.03
2023-03-01T22:46:53.276Z,-0.03
2023-03-01T22:49:22.176Z,-0.03
2023-03-01T22:51:51.678Z,-0.03
2023-03-01T22:54:20.725Z,-0.04
2023-03-01T22:56:50.598Z,-0.05
2023-03-01T22:59:25.201Z,-0.06
2023-03-01T23:01:55.024Z,-0.05
2023-03-01T23:04:24.507Z,-0.03
2023-03-01T23:06:55.915Z,-0.01
2023-03-01T23:09:34.507Z,0.02
2023-03-01T23:12:06.956Z,0.01
2023-03-01T23:14:36.464Z,0.10
2023-03-01T23:17:05.668Z,0.18
2023-03-01T23:19:34.546Z,0.25
2023-03-01T23:22:08.070Z,0.34
2023-03-01T23:24:39.048Z,0.42
2023-03-01T23:27:07.799Z,0.47
2023-03-01T23:29:36.824Z,0.55
2023-03-01T23:32:05.382Z,0.60
2023-03-01T23:34:34.392Z,0.61
2023-03-01T23:37:04.028Z,0.61
2023-03-01T23:39:32.830Z,0.63
2023-03-01T23:42:01.284Z,0.58
2023-03-01T23:44:29.801Z,0.57
2023-03-01T23:46:58.471Z,0.53
2023-03-01T23:49:28.182Z,0.50
2023-03-01T23:51:57.012Z,0.44
2023-03-01T23:54:26.086Z,0.41
2023-03-01T23:56:54.623Z,0.48
2023-03-01T23:59:24.511Z,0.53
